Time;durP1;ratioP1;P1;durP2;ratioP2;P2;SDS_P1;SDS_P2;PMS_P1;PMS_P2;Temp;Humidity;BMP_temperature;BMP_pressure;BME280_temperature;BME280_humidity;BME280_pressure;Samples;Min_cycle;Max_cycle;Signal;HPM_P1;HPM_P2
2023/12/28 00:00:10;;;;;;;6.93;2.20;;;;;;;9.03;100.00;100731.59;5017744;28;20053;-76
2023/12/28 00:02:36;;;;;;;3.88;2.78;;;;;;;9.01;100.00;100741.25;5026032;28;20029;-76
2023/12/28 00:05:01;;;;;;;8.30;2.92;;;;;;;9.02;100.00;100731.66;5024109;28;20104;-76
2023/12/28 00:07:27;;;;;;;6.53;2.90;;;;;;;9.01;100.00;100730.81;5026308;28;20047;-76
2023/12/28 00:09:52;;;;;;;3.38;2.85;;;;;;;9.01;100.00;100724.75;5019296;28;20029;-76
2023/12/28 00:12:18;;;;;;;6.43;2.50;;;;;;;8.99;100.00;100739.63;5027255;28;20075;-76
2023/12/28 00:14:43;;;;;;;5.15;2.40;;;;;;;9.00;100.00;100744.78;5031739;28;20060;-76
2023/12/28 00:17:09;;;;;;;8.30;3.08;;;;;;;8.98;100.00;100745.75;5028616;28;20167;-76
2023/12/28 00:19:34;;;;;;;5.03;2.67;;;;;;;9.01;100.00;100735.19;5022091;28;20351;-76
2023/12/28 00:21:59;;;;;;;5.30;2.58;;;;;;;9.00;100.00;100730.84;5025113;28;20045;-76
2023/12/28 00:24:24;;;;;;;4.68;3.03;;;;;;;9.01;100.00;100730.81;5023700;28;20063;-76
2023/12/28 00:26:50;;;;;;;6.60;3.05;;;;;;;9.01;100.00;100738.66;5017318;28;20041;-76
2023/12/28 00:29:15;;;;;;;9.63;2.60;;;;;;;9.00;100.00;100739.56;5029131;28;20041;-76
2023/12/28 00:31:40;;;;;;;8.23;2.75;;;;;;;9.00;100.00;100731.72;5028511;28;20033;-76
2023/12/28 00:34:06;;;;;;;4.75;2.47;;;;;;;8.99;100.00;100740.47;5028354;28;20255;-76
2023/12/28 00:36:31;;;;;;;4.20;2.55;;;;;;;9.02;100.00;100749.94;5026632;28;20386;-76
2023/12/28 00:38:57;;;;;;;8.20;2.50;;;;;;;9.01;100.00;100748.25;5020237;28;20057;-76
2023/12/28 00:41:22;;;;;;;8.50;2.50;;;;;;;9.00;100.00;100742.19;5023564;28;20033;-76
2023/12/28 00:43:47;;;;;;;12.95;2.50;;;;;;;8.99;100.00;100750.06;5033216;28;20052;-76
2023/12/28 00:46:13;;;;;;;10.63;2.50;;;;;;;8.99;100.00;100750.91;5024430;28;20037;-76
2023/12/28 00:48:38;;;;;;;9.48;2.60;;;;;;;8.97;100.00;100737.06;5029764;28;20048;-76
2023/12/28 00:51:03;;;;;;;7.43;2.92;;;;;;;8.97;100.00;100747.50;5031722;28;20103;-76
2023/12/28 00:53:29;;;;;;;7.78;2.13;;;;;;;9.00;100.00;100751.75;5034348;28;20044;-76
2023/12/28 00:55:54;;;;;;;6.22;2.38;;;;;;;8.99;100.00;100744.84;5034144;28;20032;-76
2023/12/28 00:58:19;;;;;;;1.90;1.60;;;;;;;8.97;100.00;100751.88;5021348;28;20033;-76
2023/12/28 01:00:45;;;;;;;10.15;2.25;;;;;;;8.97;100.00;100736.22;5026644;28;20026;-76
2023/12/28 01:03:10;;;;;;;7.28;3.25;;;;;;;8.95;100.00;100740.59;5025605;28;20410;-76
2023/12/28 01:05:35;;;;;;;3.83;2.22;;;;;;;8.95;100.00;100738.00;5031027;28;20206;-76
2023/12/28 01:08:01;;;;;;;9.07;2.42;;;;;;;8.95;100.00;100748.44;5025003;28;20053;-76
2023/12/28 01:10:27;;;;;;;4.50;1.98;;;;;;;8.94;100.00;100739.75;5030264;28;20232;-76
2023/12/28 01:12:53;;;;;;;9.38;2.53;;;;;;;8.99;100.00;100742.22;5022882;28;20041;-76
2023/12/28 01:15:20;;;;;;;7.00;2.25;;;;;;;8.97;100.00;100744.03;5029854;28;20116;-76
2023/12/28 01:17:45;;;;;;;4.72;2.00;;;;;;;8.99;100.00;100750.91;5028016;28;20293;-76
2023/12/28 01:20:11;;;;;;;4.25;2.25;;;;;;;8.96;100.00;100747.56;5031309;28;20041;-76
2023/12/28 01:22:36;;;;;;;4.35;2.38;;;;;;;8.98;100.00;100743.13;5018996;28;20237;-76
2023/12/28 01:25:01;;;;;;;13.07;3.00;;;;;;;8.99;100.00;100723.94;5015951;28;20032;-76
2023/12/28 01:27:27;;;;;;;5.20;2.20;;;;;;;8.96;100.00;100743.16;5026600;28;20033;-76
2023/12/28 01:29:53;;;;;;;9.60;2.60;;;;;;;8.95;100.00;100730.16;5030740;28;20096;-76
2023/12/28 01:32:18;;;;;;;7.55;2.40;;;;;;;8.98;100.00;100746.59;5023214;28;20554;-76
2023/12/28 01:34:44;;;;;;;5.70;2.17;;;;;;;8.99;100.00;100740.47;5021823;28;21107;-76
2023/12/28 01:37:10;;;;;;;7.40;3.13;;;;;;;8.99;100.00;100745.69;5028773;28;20033;-76
2023/12/28 01:39:35;;;;;;;3.83;2.40;;;;;;;8.97;100.00;100755.34;5027998;28;20041;-76
2023/12/28 01:42:01;;;;;;;5.97;2.60;;;;;;;8.93;100.00;100763.31;5025974;28;20207;-76
2023/12/28 01:44:26;;;;;;;3.95;2.28;;;;;;;8.91;100.00;100758.16;5022917;28;20386;-76
2023/12/28 01:46:52;;;;;;;8.23;2.55;;;;;;;8.91;100.00;100755.53;5024605;28;20088;-76
2023/12/28 01:49:17;;;;;;;6.75;2.33;;;;;;;8.91;100.00;100760.75;5024848;28;20101;-76
2023/12/28 01:51:45;;;;;;;5.22;2.33;;;;;;;8.91;100.00;100768.59;5026055;28;20044;-76
2023/12/28 01:54:11;;;;;;;3.53;2.00;;;;;;;8.91;100.00;100768.59;5022258;28;20395;-76
2023/12/28 01:56:37;;;;;;;3.80;2.20;;;;;;;8.92;100.00;100756.41;5024657;28;20368;-76
2023/12/28 01:59:03;;;;;;;5.45;2.50;;;;;;;8.93;100.00;100779.00;5023289;28;20041;-76
2023/12/28 02:01:28;;;;;;;3.20;2.05;;;;;;;8.93;100.00;100763.31;5024375;28;20034;-76
2023/12/28 02:03:55;;;;;;;7.22;2.40;;;;;;;8.91;100.00;100755.53;5024908;28;20206;-76
2023/12/28 02:06:23;;;;;;;4.47;1.75;;;;;;;8.94;100.00;100773.72;5025697;28;20067;-76
2023/12/28 02:08:48;;;;;;;6.10;2.10;;;;;;;8.92;100.00;100785.97;5025481;28;20095;-76
2023/12/28 02:11:14;;;;;;;3.47;1.98;;;;;;;8.91;100.00;100779.03;5025643;28;20033;-76
2023/12/28 02:13:39;;;;;;;6.85;2.08;;;;;;;8.89;100.00;100775.63;5026076;28;20096;-76
2023/12/28 02:16:12;;;;;;;8.63;2.53;;;;;;;8.90;100.00;100760.84;5024298;28;20104;-76
2023/12/28 02:18:42;;;;;;;4.65;2.13;;;;;;;8.89;100.00;100767.81;5024443;28;20029;-76
2023/12/28 02:21:08;;;;;;;5.25;2.00;;;;;;;8.87;100.00;100761.78;5023997;28;20037;-76
2023/12/28 02:23:33;;;;;;;5.63;2.25;;;;;;;8.87;100.00;100763.56;5026432;28;20264;-76
2023/12/28 02:25:59;;;;;;;7.40;2.20;;;;;;;8.88;100.00;100757.41;5022189;28;20332;-76
2023/12/28 02:28:24;;;;;;;5.88;2.03;;;;;;;8.84;100.00;100759.28;5029830;28;20328;-76
2023/12/28 02:30:50;;;;;;;6.05;2.05;;;;;;;8.84;100.00;100757.53;5033776;28;20084;-76
2023/12/28 02:33:19;;;;;;;6.75;2.30;;;;;;;8.87;100.00;100753.94;5034852;28;20127;-76
2023/12/28 02:35:55;;;;;;;6.60;2.20;;;;;;;8.81;100.00;100757.63;5034173;28;20041;-76
2023/12/28 02:38:23;;;;;;;7.82;3.05;;;;;;;8.83;100.00;100760.19;5034892;28;20033;-76
2023/12/28 02:40:49;;;;;;;7.05;2.28;;;;;;;8.85;100.00;100766.22;5032033;28;20047;-76
2023/12/28 02:43:15;;;;;;;4.70;2.20;;;;;;;8.82;100.00;100769.78;5015074;28;20037;-76
2023/12/28 02:45:40;;;;;;;5.50;2.20;;;;;;;8.87;100.00;100779.22;5026745;28;20140;-76
2023/12/28 02:48:06;;;;;;;7.30;2.63;;;;;;;8.84;100.00;100774.94;5029708;28;20033;-76
2023/12/28 02:50:32;;;;;;;13.27;3.08;;;;;;;8.83;100.00;100778.47;5030447;28;20041;-76
2023/12/28 02:52:58;;;;;;;5.38;2.13;;;;;;;8.84;100.00;100774.94;5031351;28;20041;-76
2023/12/28 02:55:23;;;;;;;6.53;2.10;;;;;;;8.84;100.00;100772.31;5015551;28;20399;-76
2023/12/28 02:57:50;;;;;;;8.60;2.20;;;;;;;8.81;100.00;100765.47;5014783;28;20319;-76
2023/12/28 03:00:16;;;;;;;8.75;2.72;;;;;;;8.81;100.00;100768.06;5028425;28;20045;-76
2023/12/28 03:02:42;;;;;;;8.90;2.53;;;;;;;8.81;100.00;100754.16;5034101;28;20064;-76
2023/12/28 03:05:08;;;;;;;14.75;3.15;;;;;;;8.85;100.00;100776.66;5033030;28;20064;-76
2023/12/28 03:07:34;;;;;;;3.95;1.70;;;;;;;8.85;100.00;100758.38;5033583;28;20459;-76
2023/12/28 03:10:00;;;;;;;14.05;2.00;;;;;;;8.85;100.00;100760.97;5021928;28;20352;-77
2023/12/28 03:12:25;;;;;;;8.60;1.75;;;;;;;8.86;100.00;100754.88;5033617;28;20029;-76
2023/12/28 03:14:51;;;;;;;12.48;3.10;;;;;;;8.87;100.00;100753.94;5031662;28;20029;-76
2023/12/28 03:17:16;;;;;;;7.95;2.13;;;;;;;8.87;100.00;100747.88;5033947;28;20312;-76
2023/12/28 03:19:41;;;;;;;6.97;1.95;;;;;;;8.86;100.00;100765.31;5027530;28;20026;-76
2023/12/28 03:22:07;;;;;;;5.38;1.60;;;;;;;8.86;100.00;100746.16;5019274;28;20355;-76
2023/12/28 03:24:32;;;;;;;5.72;1.95;;;;;;;8.85;100.00;100753.16;5025548;28;20034;-76
2023/12/28 03:26:58;;;;;;;4.65;1.70;;;;;;;8.83;100.00;100710.56;5031800;28;20036;-76
2023/12/28 03:29:24;;;;;;;11.52;2.08;;;;;;;8.81;100.00;100728.91;5033113;28;20036;-76
2023/12/28 03:31:49;;;;;;;8.15;1.70;;;;;;;8.84;100.00;100733.16;5024988;28;20236;-76
2023/12/28 03:34:15;;;;;;;14.07;2.10;;;;;;;8.80;100.00;100736.78;5033451;28;20036;-76
2023/12/28 03:36:40;;;;;;;6.55;1.38;;;;;;;8.80;100.00;100742.00;5030642;28;20060;-76
2023/12/28 03:39:05;;;;;;;10.18;1.83;;;;;;;8.78;100.00;100722.94;5013889;28;20054;-76
2023/12/28 03:41:31;;;;;;;6.40;1.52;;;;;;;8.79;100.00;100727.25;5013911;28;20048;-76
2023/12/28 03:43:57;;;;;;;11.40;2.72;;;;;;;8.83;100.00;100731.47;5013219;28;20053;-76
2023/12/28 03:46:22;;;;;;;15.35;2.65;;;;;;;8.86;100.00;100727.88;5030412;28;20033;-76
2023/12/28 03:48:47;;;;;;;9.23;2.42;;;;;;;8.84;100.00;100734.03;5015193;28;20149;-76
2023/12/28 03:51:15;;;;;;;3.45;1.42;;;;;;;8.82;100.00;100734.97;5028469;28;20295;-76
2023/12/28 03:53:40;;;;;;;11.73;1.90;;;;;;;8.85;100.00;100727.03;5033131;28;20347;-74
2023/12/28 03:56:05;;;;;;;8.55;2.00;;;;;;;8.85;100.00;100737.47;5019927;28;20044;-74
2023/12/28 03:58:31;;;;;;;11.75;1.88;;;;;;;8.86;100.00;100728.75;5031860;28;20045;-73
2023/12/28 04:00:56;;;;;;;9.20;2.25;;;;;;;8.86;100.00;100728.75;5033053;28;20044;-76
2023/12/28 04:03:21;;;;;;;8.32;1.63;;;;;;;8.89;100.00;100731.25;5033154;28;20040;-76
2023/12/28 04:05:47;;;;;;;9.68;2.88;;;;;;;8.92;100.00;100738.97;5026133;28;20093;-76
2023/12/28 04:08:13;;;;;;;12.57;1.95;;;;;;;8.93;100.00;100727.63;5028250;28;20048;-76
2023/12/28 04:10:38;;;;;;;5.65;1.58;;;;;;;8.93;100.00;100735.47;5027472;28;20351;-76
2023/12/28 04:13:04;;;;;;;8.95;1.63;;;;;;;8.93;100.00;100738.09;5013133;28;20044;-76
2023/12/28 04:15:30;;;;;;;7.28;1.70;;;;;;;8.96;100.00;100737.94;5025067;28;20302;-76
2023/12/28 04:17:55;;;;;;;8.27;1.83;;;;;;;8.97;100.00;100728.38;5032592;28;20049;-76
2023/12/28 04:20:21;;;;;;;11.95;2.00;;;;;;;8.99;100.00;100731.78;5032923;28;20099;-76
2023/12/28 04:22:46;;;;;;;9.18;1.77;;;;;;;8.98;100.00;100727.44;5030814;28;20033;-76
2023/12/28 04:25:12;;;;;;;7.30;1.75;;;;;;;9.01;100.00;100743.03;5032768;28;20101;-75
2023/12/28 04:27:38;;;;;;;8.88;1.95;;;;;;;9.08;100.00;100744.50;5032838;28;20087;-76
2023/12/28 04:30:08;;;;;;;14.65;2.33;;;;;;;9.08;100.00;100738.41;5036450;28;20431;-76
2023/12/28 04:32:33;;;;;;;9.40;2.15;;;;;;;9.07;100.00;100749.78;5036648;28;20029;-76
2023/12/28 04:34:58;;;;;;;8.52;1.67;;;;;;;9.08;100.00;100744.50;5036369;28;20112;-76
2023/12/28 04:37:26;;;;;;;10.02;2.72;;;;;;;9.09;100.00;100747.97;5026098;28;20362;-76
2023/12/28 04:39:52;;;;;;;9.05;2.17;;;;;;;9.10;100.00;100763.59;5016850;28;20352;-76
2023/12/28 04:42:18;;;;;;;10.10;1.67;;;;;;;9.13;100.00;100755.66;5017876;28;20052;-76
2023/12/28 04:44:43;;;;;;;15.15;1.50;;;;;;;9.14;100.00;100749.50;5017128;28;20041;-76
2023/12/28 04:47:09;;;;;;;16.48;2.63;;;;;;;9.14;100.00;100752.13;5033679;28;20349;-76
2023/12/28 04:49:34;;;;;;;9.63;1.67;;;;;;;9.14;100.00;100759.94;5032777;28;20041;-76
2023/12/28 04:52:00;;;;;;;16.08;2.53;;;;;;;9.15;100.00;100750.34;5035140;28;20248;-76
2023/12/28 04:54:25;;;;;;;13.82;2.15;;;;;;;9.16;100.00;100758.13;5036740;28;20044;-76
2023/12/28 04:56:51;;;;;;;9.57;2.00;;;;;;;9.16;100.00;100773.81;5035297;28;20360;-76
2023/12/28 04:59:16;;;;;;;9.43;1.33;;;;;;;9.18;100.00;100748.47;5036948;28;20055;-76
2023/12/28 05:01:45;;;;;;;17.25;2.15;;;;;;;9.20;100.00;100764.97;5019341;28;20286;-76
2023/12/28 05:04:11;;;;;;;12.95;1.80;;;;;;;9.19;100.00;100768.50;5018968;28;20045;-76
2023/12/28 05:06:36;;;;;;;17.40;2.22;;;;;;;9.21;100.00;100765.81;5033020;28;20040;-76
2023/12/28 05:09:02;;;;;;;19.00;2.35;;;;;;;9.23;100.00;100767.47;5022910;28;20120;-76
2023/12/28 05:11:27;;;;;;;15.20;1.73;;;;;;;9.21;100.00;100768.44;5035964;28;20025;-76
2023/12/28 05:13:53;;;;;;;15.82;2.40;;;;;;;9.21;100.00;100768.44;5033966;28;20039;-76
2023/12/28 05:16:19;;;;;;;13.80;2.10;;;;;;;9.25;100.00;100777.03;5034489;28;20101;-76
2023/12/28 05:18:44;;;;;;;15.55;2.05;;;;;;;9.25;100.00;100777.03;5034052;28;20394;-76
2023/12/28 05:21:09;;;;;;;7.85;2.10;;;;;;;9.23;100.00;100764.84;5033835;28;20228;-76
2023/12/28 05:23:35;;;;;;;11.02;2.17;;;;;;;9.23;100.00;100761.38;5026185;28;20030;-76
2023/12/28 05:26:00;;;;;;;15.90;1.95;;;;;;;9.23;100.00;100770.06;5015484;28;20042;-76
2023/12/28 05:28:25;;;;;;;8.70;1.90;;;;;;;9.23;100.00;100764.00;5016874;28;20034;-76
2023/12/28 05:30:51;;;;;;;16.23;2.30;;;;;;;9.21;100.00;100763.22;5031214;28;20041;-75
2023/12/28 05:33:16;;;;;;;18.52;2.75;;;;;;;9.21;100.00;100781.50;5016852;28;20022;-76
2023/12/28 05:35:41;;;;;;;20.35;2.67;;;;;;;9.21;100.00;100768.44;5015004;28;20038;-76
2023/12/28 05:38:07;;;;;;;18.25;2.38;;;;;;;9.22;100.00;100776.22;5016965;28;20043;-75
2023/12/28 05:40:32;;;;;;;13.38;2.92;;;;;;;9.23;100.00;100782.28;5024469;28;20206;-76
2023/12/28 05:42:57;;;;;;;14.48;2.28;;;;;;;9.23;100.00;100775.28;5033523;28;20061;-76
2023/12/28 05:45:23;;;;;;;15.43;2.78;;;;;;;9.25;100.00;100787.47;5035667;28;20260;-76
2023/12/28 05:47:48;;;;;;;11.90;2.70;;;;;;;9.23;100.00;100790.97;5035553;28;20079;-76
2023/12/28 05:50:13;;;;;;;15.32;2.28;;;;;;;9.23;100.00;100777.06;5018713;28;20083;-76
2023/12/28 05:52:39;;;;;;;9.95;2.08;;;;;;;9.24;100.00;100781.41;5015918;28;20113;-76
2023/12/28 05:55:05;;;;;;;14.23;2.25;;;;;;;9.23;100.00;100779.69;5016754;28;20021;-76
2023/12/28 05:57:31;;;;;;;11.55;2.63;;;;;;;9.25;100.00;100787.47;5024313;28;20060;-76
2023/12/28 05:59:57;;;;;;;15.65;2.25;;;;;;;9.24;100.00;100784.00;5034304;28;20372;-76
2023/12/28 06:02:22;;;;;;;12.85;2.38;;;;;;;9.25;100.00;100779.63;5034865;28;20337;-76
2023/12/28 06:04:48;;;;;;;17.58;3.05;;;;;;;9.25;100.00;100788.31;5035100;28;20041;-76
2023/12/28 06:07:13;;;;;;;17.05;3.03;;;;;;;9.26;100.00;100787.41;5032451;28;20095;-76
2023/12/28 06:09:38;;;;;;;11.77;2.58;;;;;;;9.27;100.00;100799.56;5034371;28;20043;-76
2023/12/28 06:12:07;;;;;;;13.25;2.78;;;;;;;9.28;100.00;100805.63;5032943;28;20021;-76
2023/12/28 06:14:33;;;;;;;18.25;2.40;;;;;;;9.28;100.00;100811.72;5034250;28;20099;-76
2023/12/28 06:16:58;;;;;;;26.27;3.00;;;;;;;9.28;100.00;100813.47;5030392;28;20344;-76
2023/12/28 06:19:23;;;;;;;11.27;2.58;;;;;;;9.28;100.00;100811.72;5015703;28;20348;-76
2023/12/28 06:21:49;;;;;;;19.83;3.58;;;;;;;9.28;100.00;100808.25;5034284;28;20064;-75
2023/12/28 06:24:15;;;;;;;15.25;2.65;;;;;;;9.29;100.00;100808.19;5033263;28;20038;-76
2023/12/28 06:26:44;;;;;;;14.23;2.40;;;;;;;9.28;100.00;100816.09;5032724;28;20033;-75
2023/12/28 06:29:10;;;;;;;16.27;2.78;;;;;;;9.26;100.00;100803.09;5033155;28;20033;-75
2023/12/28 06:31:36;;;;;;;17.65;3.03;;;;;;;9.26;100.00;100794.38;5017189;28;20228;-75
2023/12/28 06:34:06;;;;;;;16.67;2.50;;;;;;;9.26;100.00;100792.66;5029125;28;20049;-76
2023/12/28 06:36:32;;;;;;;23.45;2.97;;;;;;;9.27;100.00;100793.50;5014424;28;20128;-76
2023/12/28 06:38:58;;;;;;;20.45;2.67;;;;;;;9.23;100.00;100800.59;5014677;28;20038;-76
2023/12/28 06:41:25;;;;;;;18.60;2.60;;;;;;;9.20;100.00;100803.31;5014883;28;20053;-76
2023/12/28 06:43:50;;;;;;;16.67;2.38;;;;;;;9.17;100.00;100813.88;5023028;28;20041;-76
2023/12/28 06:46:15;;;;;;;20.30;2.72;;;;;;;9.14;100.00;100811.38;5017518;28;20069;-76
2023/12/28 06:48:41;;;;;;;28.15;3.08;;;;;;;9.11;100.00;100809.69;5017756;28;20033;-76
2023/12/28 06:51:07;;;;;;;21.92;3.03;;;;;;;9.09;100.00;100818.50;5013924;28;20048;-76
2023/12/28 06:53:32;;;;;;;25.52;3.35;;;;;;;9.03;100.00;100827.41;5015142;28;20134;-76
2023/12/28 06:55:58;;;;;;;20.92;2.40;;;;;;;9.02;100.00;100821.34;5027943;28;20347;-76
2023/12/28 06:58:23;;;;;;;17.65;3.30;;;;;;;9.00;100.00;100828.38;5017108;28;20042;-76
2023/12/28 07:00:49;;;;;;;21.30;3.67;;;;;;;9.00;100.00;100819.66;5022769;28;20057;-76
2023/12/28 07:03:14;;;;;;;14.13;2.42;;;;;;;9.01;100.00;100834.44;5013773;28;20037;-76
2023/12/28 07:05:39;;;;;;;16.27;2.78;;;;;;;9.01;100.00;100829.22;5035307;28;20037;-76
2023/12/28 07:08:05;;;;;;;12.95;2.40;;;;;;;8.99;100.00;100837.13;4995129;28;1093646;-76
2023/12/28 07:10:30;;;;;;;12.75;2.17;;;;;;;8.99;100.00;100846.72;5033759;28;20052;-75
2023/12/28 07:12:56;;;;;;;15.60;3.42;;;;;;;9.00;100.00;100831.00;5022063;28;20575;-76
2023/12/28 07:15:21;;;;;;;21.65;3.22;;;;;;;9.01;100.00;100840.53;5033933;28;20379;-76
2023/12/28 07:17:46;;;;;;;15.85;2.67;;;;;;;9.03;100.00;100836.09;5032314;28;20041;-76
2023/12/28 07:20:12;;;;;;;15.02;2.17;;;;;;;9.02;100.00;100857.91;5022597;28;20026;-76
2023/12/28 07:22:38;;;;;;;16.60;2.38;;;;;;;9.04;100.00;100865.69;5023483;28;20224;-76
2023/12/28 07:25:07;;;;;;;15.23;2.55;;;;;;;9.10;100.00;100865.47;5025153;28;20041;-76
2023/12/28 07:27:34;;;;;;;14.55;2.63;;;;;;;9.10;100.00;100875.94;5023617;28;20055;-76
2023/12/28 07:29:59;;;;;;;18.40;2.70;;;;;;;9.10;100.00;100868.09;5023608;28;20100;-76
2023/12/28 07:32:25;;;;;;;18.60;2.45;;;;;;;9.11;100.00;100869.78;5023941;28;20052;-75
2023/12/28 07:34:53;;;;;;;17.83;2.65;;;;;;;9.12;100.00;100868.91;5022957;28;20045;-75
2023/12/28 07:37:18;;;;;;;21.02;2.97;;;;;;;9.12;100.00;100876.72;5022904;28;20196;-75
2023/12/28 07:39:44;;;;;;;15.73;2.70;;;;;;;9.14;100.00;100879.28;5022284;28;20069;-76
2023/12/28 07:42:09;;;;;;;13.82;2.70;;;;;;;9.13;100.00;100874.97;5023947;28;20064;-76
2023/12/28 07:44:35;;;;;;;16.13;2.28;;;;;;;9.14;100.00;100877.53;5025059;28;20037;-76
2023/12/28 07:47:00;;;;;;;20.00;2.50;;;;;;;9.12;100.00;100879.34;5022033;28;20051;-75
2023/12/28 07:49:26;;;;;;;17.88;3.05;;;;;;;9.11;100.00;100879.38;5023216;28;20478;-76
2023/12/28 07:51:51;;;;;;;15.35;2.90;;;;;;;9.14;100.00;100887.97;5023377;28;20582;-75
2023/12/28 07:54:16;;;;;;;15.93;2.38;;;;;;;9.13;100.00;100894.13;5023254;28;20141;-75
2023/12/28 07:56:42;;;;;;;10.25;2.63;;;;;;;9.14;100.00;100894.97;5019754;28;20037;-75
2023/12/28 07:59:09;;;;;;;16.08;2.55;;;;;;;9.14;100.00;100879.28;5027041;28;20025;-76
2023/12/28 08:01:34;;;;;;;18.88;3.03;;;;;;;9.14;100.00;100885.38;5021173;28;20262;-75
2023/12/28 08:04:01;;;;;;;18.73;2.65;;;;;;;9.14;100.00;100884.53;5025338;28;20421;-75
2023/12/28 08:06:27;;;;;;;19.33;2.53;;;;;;;9.14;100.00;100882.75;5023704;28;20057;-76
2023/12/28 08:08:53;;;;;;;15.13;2.30;;;;;;;9.13;100.00;100885.41;5024939;28;20049;-75
2023/12/28 08:11:19;;;;;;;16.70;3.08;;;;;;;9.13;100.00;100896.75;5025843;28;20305;-75
2023/12/28 08:13:44;;;;;;;25.35;2.92;;;;;;;9.12;100.00;100896.78;5028235;28;20044;-75
2023/12/28 08:16:09;;;;;;;16.15;2.65;;;;;;;9.12;100.00;100900.25;5025776;28;20029;-75
2023/12/28 08:18:35;;;;;;;11.82;2.35;;;;;;;9.13;100.00;100911.53;5029238;28;20041;-75
2023/12/28 08:21:00;;;;;;;14.80;2.63;;;;;;;9.12;100.00;100905.47;5025076;28;20040;-76
2023/12/28 08:23:25;;;;;;;19.17;2.72;;;;;;;9.13;100.00;100911.53;5030133;28;20254;-76
2023/12/28 08:25:51;;;;;;;25.13;3.85;;;;;;;9.14;100.00;100903.66;5028993;28;20407;-75
2023/12/28 08:28:17;;;;;;;22.65;3.40;;;;;;;9.14;100.00;100900.19;5036196;28;20379;-75
2023/12/28 08:30:42;;;;;;;25.58;2.97;;;;;;;9.14;100.00;100906.28;5028980;28;20455;-76
2023/12/28 08:33:07;;;;;;;15.13;2.53;;;;;;;9.13;100.00;100898.47;5027905;28;20033;-75
2023/12/28 08:35:33;;;;;;;16.75;2.58;;;;;;;9.14;100.00;100906.28;5036775;28;20037;-75
2023/12/28 08:37:59;;;;;;;13.73;2.65;;;;;;;9.15;100.00;100918.44;5032717;28;20043;-76
2023/12/28 08:40:25;;;;;;;16.92;2.80;;;;;;;9.16;100.00;100914.06;5036578;28;20037;-76
2023/12/28 08:42:50;;;;;;;15.23;2.10;;;;;;;9.17;100.00;100900.09;5043474;28;20036;-75
2023/12/28 08:45:16;;;;;;;13.35;2.40;;;;;;;9.17;100.00;100911.41;5036680;28;20363;-75
2023/12/28 08:47:41;;;;;;;20.23;3.25;;;;;;;9.19;100.00;100911.34;5035009;28;20325;-75
2023/12/28 08:50:07;;;;;;;12.98;2.40;;;;;;;9.18;100.00;100913.09;5026541;28;20064;-75
2023/12/28 08:52:32;;;;;;;13.05;2.28;;;;;;;9.19;100.00;100898.28;5031405;28;20064;-75
2023/12/28 08:54:58;;;;;;;13.93;2.17;;;;;;;9.20;100.00;100897.38;5023608;28;20315;-75
2023/12/28 08:57:24;;;;;;;22.58;3.67;;;;;;;9.19;100.00;100903.53;5036330;28;20379;-75
2023/12/28 08:59:49;;;;;;;11.88;1.85;;;;;;;9.21;100.00;100904.31;5032147;28;20042;-75
2023/12/28 09:02:14;;;;;;;10.05;2.35;;;;;;;9.24;100.00;100948.66;5028841;28;20108;-75
2023/12/28 09:04:40;;;;;;;20.63;2.83;;;;;;;9.24;100.00;100917.28;5033991;28;20035;-77
2023/12/28 09:07:05;;;;;;;15.95;3.15;;;;;;;9.27;100.00;100914.53;5036156;28;20139;-78
2023/12/28 09:09:30;;;;;;;20.23;3.88;;;;;;;9.28;100.00;100923.22;5036677;28;20029;-78
2023/12/28 09:11:56;;;;;;;15.70;2.70;;;;;;;9.30;100.00;100911.00;5035426;28;20238;-75
2023/12/28 09:14:21;;;;;;;15.73;2.40;;;;;;;9.32;100.00;100920.47;5036371;28;20057;-78
2023/12/28 09:16:47;;;;;;;20.42;2.55;;;;;;;9.34;100.00;100915.19;5021732;28;20045;-75
2023/12/28 09:19:13;;;;;;;21.38;3.63;;;;;;;9.36;100.00;100918.63;5035223;28;20061;-76
2023/12/28 09:21:38;;;;;;;16.58;2.80;;;;;;;9.37;100.00;100923.78;5035949;28;20033;-76
2023/12/28 09:24:04;;;;;;;28.80;2.85;;;;;;;9.38;100.00;100925.47;5035245;28;20064;-76
2023/12/28 09:26:29;;;;;;;21.67;3.53;;;;;;;9.40;100.00;100931.53;5026031;28;20100;-75
2023/12/28 09:28:55;;;;;;;16.48;2.65;;;;;;;9.41;100.00;100950.69;5026361;28;20038;-76
2023/12/28 09:31:20;;;;;;;25.35;3.35;;;;;;;9.39;100.00;100945.50;5030250;28;20037;-76
2023/12/28 09:33:45;;;;;;;16.55;3.08;;;;;;;9.40;100.00;100941.13;5033456;28;20041;-76
2023/12/28 09:36:13;;;;;;;17.98;2.83;;;;;;;9.35;100.00;100956.09;5032625;28;20030;-76
2023/12/28 09:38:38;;;;;;;16.15;2.58;;;;;;;9.36;100.00;100958.66;5031160;28;20044;-76
2023/12/28 09:41:14;;;;;;;16.15;2.95;;;;;;;9.35;100.00;100948.25;5033986;28;20244;-76
2023/12/28 09:43:49;;;;;;;15.48;2.72;;;;;;;9.34;100.00;100967.47;5023351;28;20060;-76
2023/12/28 09:46:15;;;;;;;14.70;2.55;;;;;;;9.35;100.00;100948.25;5035297;28;20029;-76
2023/12/28 09:48:40;;;;;;;23.52;2.95;;;;;;;9.33;100.00;100964.00;5034822;28;20056;-76
2023/12/28 09:51:06;;;;;;;22.30;3.25;;;;;;;9.36;100.00;100948.22;5033374;28;20033;-76
2023/12/28 09:53:31;;;;;;;20.77;3.30;;;;;;;9.36;100.00;100963.03;5022435;28;20129;-76
2023/12/28 09:55:57;;;;;;;18.23;3.03;;;;;;;9.37;100.00;100956.94;5034797;28;20029;-76
2023/12/28 09:58:23;;;;;;;18.67;2.63;;;;;;;9.37;100.00;100959.53;5029001;28;20029;-76
2023/12/28 10:00:49;;;;;;;16.35;3.00;;;;;;;9.41;100.00;100967.22;5035425;28;20043;-76
2023/12/28 10:03:16;;;;;;;12.73;2.63;;;;;;;9.44;100.00;100984.56;5034653;28;20033;-75
2023/12/28 10:05:42;;;;;;;14.80;3.72;;;;;;;9.47;100.00;100984.44;5035426;28;20100;-76
2023/12/28 10:08:07;;;;;;;21.38;3.70;;;;;;;9.49;100.00;101003.53;5033826;28;20135;-76
2023/12/28 10:10:33;;;;;;;26.27;3.58;;;;;;;9.52;100.00;100981.69;5035028;28;20083;-76
2023/12/28 10:12:59;;;;;;;16.80;2.85;;;;;;;9.51;100.00;100993.88;5023883;28;20033;-76
2023/12/28 10:15:25;;;;;;;19.73;3.05;;;;;;;9.52;100.00;100985.16;5033807;28;20544;-76
2023/12/28 10:17:52;;;;;;;16.08;2.75;;;;;;;9.53;100.00;100986.88;5028638;28;20040;-76
2023/12/28 10:20:17;;;;;;;20.58;3.15;;;;;;;9.52;100.00;100989.53;5030915;28;20060;-76
2023/12/28 10:22:43;;;;;;;19.90;2.55;;;;;;;9.51;100.00;100988.66;5025990;28;20337;-76
2023/12/28 10:25:09;;;;;;;21.20;3.05;;;;;;;9.52;100.00;100995.59;5033577;28;20346;-75
2023/12/28 10:27:40;;;;;;;20.45;2.75;;;;;;;9.52;100.00;100981.69;5030057;28;20091;-76
2023/12/28 10:30:07;;;;;;;14.10;3.40;;;;;;;9.53;100.00;100986.00;5034058;28;20098;-76
2023/12/28 10:32:32;;;;;;;13.68;2.15;;;;;;;9.54;100.00;100978.09;5031444;28;20021;-76
2023/12/28 10:34:58;;;;;;;19.02;3.17;;;;;;;9.55;100.00;100981.56;5032145;28;20363;-76
2023/12/28 10:37:26;;;;;;;17.67;3.47;;;;;;;9.55;100.00;100992.03;5033793;28;20033;-76
2023/12/28 10:39:53;;;;;;;15.23;2.95;;;;;;;9.54;100.00;100972.88;5034149;28;20041;-76
2023/12/28 10:42:32;;;;;;;21.50;3.15;;;;;;;9.56;100.00;100993.75;5030467;28;20033;-76
2023/12/28 10:45:05;;;;;;;30.20;2.90;;;;;;;9.56;100.00;100975.44;5031626;28;20033;-76
2023/12/28 10:47:37;;;;;;;25.25;3.03;;;;;;;9.57;100.00;100979.78;5031020;28;20410;-76
2023/12/28 10:50:05;;;;;;;17.30;2.70;;;;;;;9.57;100.00;100982.38;5030560;28;20033;-76
2023/12/28 10:52:32;;;;;;;21.00;2.92;;;;;;;9.56;100.00;100984.13;5029931;28;20033;-76
2023/12/28 10:55:15;;;;;;;23.08;3.38;;;;;;;9.58;100.00;100984.94;5029163;28;20328;-76
2023/12/28 10:57:49;;;;;;;26.15;3.53;;;;;;;9.58;100.00;100981.47;5029959;28;20041;-76
2023/12/28 11:00:26;;;;;;;29.63;3.33;;;;;;;9.56;100.00;100973.66;5025404;28;20033;-76
2023/12/28 11:02:58;;;;;;;17.45;2.90;;;;;;;9.56;100.00;100975.44;5023612;28;20064;-76
2023/12/28 11:05:26;;;;;;;20.05;3.10;;;;;;;9.56;100.00;100975.44;5027472;28;20096;-76
2023/12/28 11:07:56;;;;;;;24.27;3.07;;;;;;;9.55;100.00;100985.06;5025253;28;20276;-76
2023/12/28 11:10:24;;;;;;;22.98;2.55;;;;;;;9.56;100.00;100976.28;5024324;28;20296;-76
2023/12/28 11:12:53;;;;;;;23.27;3.15;;;;;;;9.55;100.00;100974.59;5033141;28;20121;-76